sensor_id;sensor_type;location;lat;lon;timestamp;P1;durP1;ratioP1;P2;durP2;ratioP2
10637;SDS011;47007;49.252;8.904;2024-03-22T00:00:17;6.50;;;4.75;;
10637;SDS011;47007;49.252;8.904;2024-03-22T00:00:58;5.63;;;5.13;;
10637;SDS011;47007;49.252;8.904;2024-03-22T00:01:38;6.15;;;5.63;;
10637;SDS011;47007;49.252;8.904;2024-03-22T00:02:19;6.53;;;5.00;;
10637;SDS011;47007;49.252;8.904;2024-03-22T00:03:00;5.95;;;5.35;;
10637;SDS011;47007;49.252;8.904;2024-03-22T00:03:40;6.15;;;5.55;;
10637;SDS011;47007;49.252;8.904;2024-03-22T00:04:21;6.43;;;5.80;;
10637;SDS011;47007;49.252;8.904;2024-03-22T00:05:03;6.53;;;5.93;;
10637;SDS011;47007;49.252;8.904;2024-03-22T00:05:44;6.97;;;5.50;;
10637;SDS011;47007;49.252;8.904;2024-03-22T00:06:25;6.22;;;5.28;;
10637;SDS011;47007;49.252;8.904;2024-03-22T00:07:05;5.97;;;5.38;;
10637;SDS011;47007;49.252;8.904;2024-03-22T00:07:46;6.20;;;5.60;;
10637;SDS011;47007;49.252;8.904;2024-03-22T00:08:27;6.28;;;5.57;;
10637;SDS011;47007;49.252;8.904;2024-03-22T00:09:08;5.85;;;5.28;;
10637;SDS011;47007;49.252;8.904;2024-03-22T00:09:49;5.97;;;5.38;;
10637;SDS011;47007;49.252;8.904;2024-03-22T00:10:30;7.55;;;5.60;;
10637;SDS011;47007;49.252;8.904;2024-03-22T00:11:11;6.13;;;5.63;;
10637;SDS011;47007;49.252;8.904;2024-03-22T00:11:51;5.93;;;5.22;;
10637;SDS011;47007;49.252;8.904;2024-03-22T00:12:32;5.70;;;5.20;;
10637;SDS011;47007;49.252;8.904;2024-03-22T00:13:13;6.50;;;5.63;;
10637;SDS011;47007;49.252;8.904;2024-03-22T00:13:54;6.13;;;5.55;;
10637;SDS011;47007;49.252;8.904;2024-03-22T00:14:35;5.70;;;5.20;;
10637;SDS011;47007;49.252;8.904;2024-03-22T00:15:15;5.97;;;5.47;;
10637;SDS011;47007;49.252;8.904;2024-03-22T00:15:56;6.35;;;5.15;;
10637;SDS011;47007;49.252;8.904;2024-03-22T00:16:37;5.82;;;5.32;;
10637;SDS011;47007;49.252;8.904;2024-03-22T00:17:18;5.95;;;5.45;;
10637;SDS011;47007;49.252;8.904;2024-03-22T00:17:59;5.63;;;5.13;;
10637;SDS011;47007;49.252;8.904;2024-03-22T00:18:39;5.75;;;5.25;;
10637;SDS011;47007;49.252;8.904;2024-03-22T00:19:21;5.40;;;4.90;;
10637;SDS011;47007;49.252;8.904;2024-03-22T00:20:01;5.40;;;4.90;;
10637;SDS011;47007;49.252;8.904;2024-03-22T00:20:42;6.20;;;5.18;;
10637;SDS011;47007;49.252;8.904;2024-03-22T00:21:24;5.90;;;5.40;;
10637;SDS011;47007;49.252;8.904;2024-03-22T00:22:05;5.82;;;5.13;;
10637;SDS011;47007;49.252;8.904;2024-03-22T00:22:46;5.25;;;4.75;;
10637;SDS011;47007;49.252;8.904;2024-03-22T00:23:26;5.32;;;4.93;;
10637;SDS011;47007;49.252;8.904;2024-03-22T00:24:07;5.70;;;5.20;;
10637;SDS011;47007;49.252;8.904;2024-03-22T00:24:48;5.80;;;5.28;;
10637;SDS011;47007;49.252;8.904;2024-03-22T00:25:29;4.85;;;4.45;;
10637;SDS011;47007;49.252;8.904;2024-03-22T00:26:11;5.03;;;4.63;;
10637;SDS011;47007;49.252;8.904;2024-03-22T00:26:51;5.32;;;4.82;;
10637;SDS011;47007;49.252;8.904;2024-03-22T00:27:32;4.95;;;4.55;;
10637;SDS011;47007;49.252;8.904;2024-03-22T00:28:13;5.55;;;5.05;;
10637;SDS011;47007;49.252;8.904;2024-03-22T00:28:54;5.40;;;5.00;;
10637;SDS011;47007;49.252;8.904;2024-03-22T00:29:34;5.63;;;5.07;;
10637;SDS011;47007;49.252;8.904;2024-03-22T00:30:15;5.45;;;4.95;;
10637;SDS011;47007;49.252;8.904;2024-03-22T00:30:56;5.43;;;4.93;;
10637;SDS011;47007;49.252;8.904;2024-03-22T00:31:37;5.97;;;5.47;;
10637;SDS011;47007;49.252;8.904;2024-03-22T00:32:17;5.63;;;5.00;;
10637;SDS011;47007;49.252;8.904;2024-03-22T00:32:58;6.45;;;5.35;;
10637;SDS011;47007;49.252;8.904;2024-03-22T00:33:39;6.28;;;5.60;;
10637;SDS011;47007;49.252;8.904;2024-03-22T00:34:20;5.80;;;5.30;;
10637;SDS011;47007;49.252;8.904;2024-03-22T00:35:00;5.75;;;5.25;;
10637;SDS011;47007;49.252;8.904;2024-03-22T00:35:41;5.40;;;4.90;;
10637;SDS011;47007;49.252;8.904;2024-03-22T00:36:22;5.95;;;5.45;;
10637;SDS011;47007;49.252;8.904;2024-03-22T00:37:03;7.95;;;6.22;;
10637;SDS011;47007;49.252;8.904;2024-03-22T00:37:44;6.57;;;5.97;;
10637;SDS011;47007;49.252;8.904;2024-03-22T00:38:24;6.60;;;6.00;;
10637;SDS011;47007;49.252;8.904;2024-03-22T00:39:05;6.40;;;5.75;;
10637;SDS011;47007;49.252;8.904;2024-03-22T00:39:46;6.50;;;5.90;;
10637;SDS011;47007;49.252;8.904;2024-03-22T00:40:27;6.20;;;5.65;;
10637;SDS011;47007;49.252;8.904;2024-03-22T00:41:07;6.38;;;5.78;;
10637;SDS011;47007;49.252;8.904;2024-03-22T00:41:48;6.40;;;5.55;;
10637;SDS011;47007;49.252;8.904;2024-03-22T00:42:29;6.35;;;5.75;;
10637;SDS011;47007;49.252;8.904;2024-03-22T00:43:10;6.03;;;5.53;;
10637;SDS011;47007;49.252;8.904;2024-03-22T00:43:51;5.75;;;5.25;;
10637;SDS011;47007;49.252;8.904;2024-03-22T00:44:32;6.20;;;5.70;;
10637;SDS011;47007;49.252;8.904;2024-03-22T00:45:12;5.78;;;5.28;;
10637;SDS011;47007;49.252;8.904;2024-03-22T00:45:53;5.90;;;5.40;;
10637;SDS011;47007;49.252;8.904;2024-03-22T00:46:34;5.40;;;4.90;;
10637;SDS011;47007;49.252;8.904;2024-03-22T00:47:16;6.38;;;5.78;;
10637;SDS011;47007;49.252;8.904;2024-03-22T00:47:57;5.53;;;5.10;;
10637;SDS011;47007;49.252;8.904;2024-03-22T00:48:37;6.13;;;5.60;;
10637;SDS011;47007;49.252;8.904;2024-03-22T00:49:18;5.68;;;5.10;;
10637;SDS011;47007;49.252;8.904;2024-03-22T00:49:59;6.20;;;5.68;;
10637;SDS011;47007;49.252;8.904;2024-03-22T00:50:42;6.30;;;5.65;;
10637;SDS011;47007;49.252;8.904;2024-03-22T00:51:23;5.43;;;5.03;;
10637;SDS011;47007;49.252;8.904;2024-03-22T00:52:03;5.68;;;5.18;;
10637;SDS011;47007;49.252;8.904;2024-03-22T00:52:44;6.50;;;5.90;;
10637;SDS011;47007;49.252;8.904;2024-03-22T00:53:25;6.20;;;5.60;;
10637;SDS011;47007;49.252;8.904;2024-03-22T00:54:06;5.95;;;5.35;;
10637;SDS011;47007;49.252;8.904;2024-03-22T00:54:46;6.07;;;5.47;;
10637;SDS011;47007;49.252;8.904;2024-03-22T00:55:27;5.85;;;5.25;;
10637;SDS011;47007;49.252;8.904;2024-03-22T00:56:08;5.63;;;5.20;;
10637;SDS011;47007;49.252;8.904;2024-03-22T00:56:49;5.95;;;5.45;;
10637;SDS011;47007;49.252;8.904;2024-03-22T00:57:29;6.47;;;5.40;;
10637;SDS011;47007;49.252;8.904;2024-03-22T00:58:10;5.32;;;4.82;;
10637;SDS011;47007;49.252;8.904;2024-03-22T00:58:51;5.60;;;5.10;;
10637;SDS011;47007;49.252;8.904;2024-03-22T00:59:32;5.32;;;4.82;;
10637;SDS011;47007;49.252;8.904;2024-03-22T01:00:13;5.78;;;5.13;;
10637;SDS011;47007;49.252;8.904;2024-03-22T01:00:55;5.53;;;5.03;;
10637;SDS011;47007;49.252;8.904;2024-03-22T01:01:36;5.35;;;4.95;;
10637;SDS011;47007;49.252;8.904;2024-03-22T01:02:18;5.47;;;4.97;;
10637;SDS011;47007;49.252;8.904;2024-03-22T01:02:59;5.13;;;4.70;;
10637;SDS011;47007;49.252;8.904;2024-03-22T01:03:39;5.45;;;4.95;;
10637;SDS011;47007;49.252;8.904;2024-03-22T01:04:20;5.70;;;5.20;;
10637;SDS011;47007;49.252;8.904;2024-03-22T01:05:01;5.15;;;4.65;;
10637;SDS011;47007;49.252;8.904;2024-03-22T01:05:42;5.68;;;5.18;;
10637;SDS011;47007;49.252;8.904;2024-03-22T01:06:23;5.60;;;5.10;;
10637;SDS011;47007;49.252;8.904;2024-03-22T01:07:05;5.63;;;5.05;;
10637;SDS011;47007;49.252;8.904;2024-03-22T01:07:46;5.78;;;5.28;;
10637;SDS011;47007;49.252;8.904;2024-03-22T01:08:27;5.22;;;4.82;;
10637;SDS011;47007;49.252;8.904;2024-03-22T01:09:08;5.55;;;5.05;;
10637;SDS011;47007;49.252;8.904;2024-03-22T01:09:49;5.47;;;4.97;;
10637;SDS011;47007;49.252;8.904;2024-03-22T01:10:29;5.15;;;4.75;;
10637;SDS011;47007;49.252;8.904;2024-03-22T01:11:10;5.50;;;5.00;;
10637;SDS011;47007;49.252;8.904;2024-03-22T01:11:51;5.88;;;5.38;;
10637;SDS011;47007;49.252;8.904;2024-03-22T01:12:32;5.32;;;4.82;;
10637;SDS011;47007;49.252;8.904;2024-03-22T01:13:13;5.70;;;5.20;;
10637;SDS011;47007;49.252;8.904;2024-03-22T01:13:53;5.97;;;5.38;;
10637;SDS011;47007;49.252;8.904;2024-03-22T01:14:34;5.38;;;4.88;;
10637;SDS011;47007;49.252;8.904;2024-03-22T01:15:15;5.95;;;5.18;;
10637;SDS011;47007;49.252;8.904;2024-03-22T01:15:56;6.30;;;5.25;;
10637;SDS011;47007;49.252;8.904;2024-03-22T01:16:36;5.95;;;5.07;;
10637;SDS011;47007;49.252;8.904;2024-03-22T01:17:17;5.85;;;5.07;;
10637;SDS011;47007;49.252;8.904;2024-03-22T01:17:58;6.78;;;5.40;;
10637;SDS011;47007;49.252;8.904;2024-03-22T01:18:39;5.68;;;5.07;;
10637;SDS011;47007;49.252;8.904;2024-03-22T01:19:20;5.82;;;5.32;;
10637;SDS011;47007;49.252;8.904;2024-03-22T01:20:01;5.22;;;4.75;;
10637;SDS011;47007;49.252;8.904;2024-03-22T01:20:44;6.13;;;5.63;;
10637;SDS011;47007;49.252;8.904;2024-03-22T01:21:24;5.45;;;5.05;;
10637;SDS011;47007;49.252;8.904;2024-03-22T01:22:05;5.75;;;5.25;;
10637;SDS011;47007;49.252;8.904;2024-03-22T01:22:47;5.60;;;5.10;;
10637;SDS011;47007;49.252;8.904;2024-03-22T01:23:28;5.75;;;5.25;;
10637;SDS011;47007;49.252;8.904;2024-03-22T01:24:09;6.10;;;5.53;;
10637;SDS011;47007;49.252;8.904;2024-03-22T01:24:49;6.00;;;5.35;;
10637;SDS011;47007;49.252;8.904;2024-03-22T01:25:30;5.68;;;5.18;;
10637;SDS011;47007;49.252;8.904;2024-03-22T01:26:11;6.45;;;5.43;;
10637;SDS011;47007;49.252;8.904;2024-03-22T01:26:52;6.25;;;5.43;;
10637;SDS011;47007;49.252;8.904;2024-03-22T01:27:33;5.70;;;5.18;;
10637;SDS011;47007;49.252;8.904;2024-03-22T01:28:14;6.18;;;5.60;;
10637;SDS011;47007;49.252;8.904;2024-03-22T01:28:55;6.57;;;5.70;;
10637;SDS011;47007;49.252;8.904;2024-03-22T01:29:36;5.85;;;5.35;;
10637;SDS011;47007;49.252;8.904;2024-03-22T01:30:18;6.05;;;5.55;;
10637;SDS011;47007;49.252;8.904;2024-03-22T01:30:58;5.88;;;5.32;;
10637;SDS011;47007;49.252;8.904;2024-03-22T01:31:39;5.72;;;5.20;;
10637;SDS011;47007;49.252;8.904;2024-03-22T01:32:20;5.25;;;4.80;;
10637;SDS011;47007;49.252;8.904;2024-03-22T01:33:00;5.65;;;5.15;;
10637;SDS011;47007;49.252;8.904;2024-03-22T01:33:41;5.78;;;5.28;;
10637;SDS011;47007;49.252;8.904;2024-03-22T01:34:22;5.97;;;5.47;;
10637;SDS011;47007;49.252;8.904;2024-03-22T01:35:03;6.25;;;5.65;;
10637;SDS011;47007;49.252;8.904;2024-03-22T01:35:44;6.03;;;5.47;;
10637;SDS011;47007;49.252;8.904;2024-03-22T01:36:25;5.35;;;4.85;;
10637;SDS011;47007;49.252;8.904;2024-03-22T01:37:06;6.03;;;5.43;;
10637;SDS011;47007;49.252;8.904;2024-03-22T01:37:47;5.88;;;5.38;;
10637;SDS011;47007;49.252;8.904;2024-03-22T01:38:27;6.05;;;5.10;;
10637;SDS011;47007;49.252;8.904;2024-03-22T01:39:08;5.72;;;5.15;;
10637;SDS011;47007;49.252;8.904;2024-03-22T01:39:49;6.13;;;5.60;;
10637;SDS011;47007;49.252;8.904;2024-03-22T01:40:30;5.78;;;4.97;;
10637;SDS011;47007;49.252;8.904;2024-03-22T01:41:12;5.85;;;5.35;;
10637;SDS011;47007;49.252;8.904;2024-03-22T01:41:52;5.93;;;5.40;;
10637;SDS011;47007;49.252;8.904;2024-03-22T01:42:33;5.97;;;5.25;;
10637;SDS011;47007;49.252;8.904;2024-03-22T01:43:14;6.35;;;5.75;;
10637;SDS011;47007;49.252;8.904;2024-03-22T01:43:55;5.55;;;5.05;;
10637;SDS011;47007;49.252;8.904;2024-03-22T01:44:36;5.78;;;5.28;;
10637;SDS011;47007;49.252;8.904;2024-03-22T01:45:16;6.43;;;5.82;;
10637;SDS011;47007;49.252;8.904;2024-03-22T01:45:57;5.90;;;5.30;;
10637;SDS011;47007;49.252;8.904;2024-03-22T01:46:38;5.60;;;5.13;;
10637;SDS011;47007;49.252;8.904;2024-03-22T01:47:19;5.82;;;5.32;;
10637;SDS011;47007;49.252;8.904;2024-03-22T01:48:00;6.80;;;5.40;;
10637;SDS011;47007;49.252;8.904;2024-03-22T01:48:41;5.20;;;4.70;;
10637;SDS011;47007;49.252;8.904;2024-03-22T01:49:22;5.50;;;4.85;;
10637;SDS011;47007;49.252;8.904;2024-03-22T01:50:05;5.50;;;5.00;;
10637;SDS011;47007;49.252;8.904;2024-03-22T01:50:47;6.20;;;5.65;;
10637;SDS011;47007;49.252;8.904;2024-03-22T01:51:28;6.18;;;5.68;;
10637;SDS011;47007;49.252;8.904;2024-03-22T01:52:09;5.32;;;4.82;;
10637;SDS011;47007;49.252;8.904;2024-03-22T01:52:50;5.57;;;5.10;;
10637;SDS011;47007;49.252;8.904;2024-03-22T01:53:32;6.18;;;5.68;;
10637;SDS011;47007;49.252;8.904;2024-03-22T01:54:15;6.13;;;5.35;;
10637;SDS011;47007;49.252;8.904;2024-03-22T01:54:57;5.07;;;4.53;;
10637;SDS011;47007;49.252;8.904;2024-03-22T01:55:38;6.22;;;5.63;;
10637;SDS011;47007;49.252;8.904;2024-03-22T01:56:19;5.63;;;5.13;;
10637;SDS011;47007;49.252;8.904;2024-03-22T01:56:59;5.63;;;5.13;;
10637;SDS011;47007;49.252;8.904;2024-03-22T01:57:41;5.80;;;5.30;;
10637;SDS011;47007;49.252;8.904;2024-03-22T01:58:26;6.15;;;5.65;;
10637;SDS011;47007;49.252;8.904;2024-03-22T01:59:07;5.10;;;4.68;;
10637;SDS011;47007;49.252;8.904;2024-03-22T01:59:48;5.38;;;4.90;;
10637;SDS011;47007;49.252;8.904;2024-03-22T02:00:32;5.35;;;4.95;;
10637;SDS011;47007;49.252;8.904;2024-03-22T02:01:12;5.80;;;5.20;;
10637;SDS011;47007;49.252;8.904;2024-03-22T02:01:53;5.80;;;5.20;;
10637;SDS011;47007;49.252;8.904;2024-03-22T02:02:34;6.00;;;5.40;;
10637;SDS011;47007;49.252;8.904;2024-03-22T02:03:15;6.75;;;5.40;;
10637;SDS011;47007;49.252;8.904;2024-03-22T02:03:56;6.60;;;6.00;;
10637;SDS011;47007;49.252;8.904;2024-03-22T02:04:37;6.18;;;5.65;;
10637;SDS011;47007;49.252;8.904;2024-03-22T02:05:17;6.25;;;5.65;;
10637;SDS011;47007;49.252;8.904;2024-03-22T02:06:02;6.38;;;5.78;;
10637;SDS011;47007;49.252;8.904;2024-03-22T02:06:43;6.20;;;5.40;;
10637;SDS011;47007;49.252;8.904;2024-03-22T02:07:27;5.57;;;5.07;;
10637;SDS011;47007;49.252;8.904;2024-03-22T02:08:10;5.88;;;5.28;;
10637;SDS011;47007;49.252;8.904;2024-03-22T02:08:51;5.63;;;5.13;;
10637;SDS011;47007;49.252;8.904;2024-03-22T02:09:32;5.95;;;5.32;;
10637;SDS011;47007;49.252;8.904;2024-03-22T02:10:13;6.13;;;5.60;;
10637;SDS011;47007;49.252;8.904;2024-03-22T02:10:54;5.80;;;5.20;;
10637;SDS011;47007;49.252;8.904;2024-03-22T02:11:35;5.85;;;5.35;;
10637;SDS011;47007;49.252;8.904;2024-03-22T02:12:20;6.55;;;5.82;;
10637;SDS011;47007;49.252;8.904;2024-03-22T02:13:01;6.68;;;6.07;;
10637;SDS011;47007;49.252;8.904;2024-03-22T02:13:42;6.82;;;6.22;;
10637;SDS011;47007;49.252;8.904;2024-03-22T02:14:25;7.32;;;6.63;;
10637;SDS011;47007;49.252;8.904;2024-03-22T02:15:06;7.63;;;6.53;;
10637;SDS011;47007;49.252;8.904;2024-03-22T02:15:48;6.93;;;6.32;;
10637;SDS011;47007;49.252;8.904;2024-03-22T02:16:29;6.82;;;6.13;;
10637;SDS011;47007;49.252;8.904;2024-03-22T02:17:10;6.75;;;6.13;;
10637;SDS011;47007;49.252;8.904;2024-03-22T02:17:51;6.70;;;6.03;;
10637;SDS011;47007;49.252;8.904;2024-03-22T02:18:32;7.03;;;6.28;;
10637;SDS011;47007;49.252;8.904;2024-03-22T02:19:12;6.70;;;6.10;;
10637;SDS011;47007;49.252;8.904;2024-03-22T02:19:53;6.22;;;5.63;;
10637;SDS011;47007;49.252;8.904;2024-03-22T02:20:34;7.30;;;6.13;;
10637;SDS011;47007;49.252;8.904;2024-03-22T02:21:15;7.30;;;6.60;;
10637;SDS011;47007;49.252;8.904;2024-03-22T02:21:56;6.50;;;5.90;;
10637;SDS011;47007;49.252;8.904;2024-03-22T02:22:37;7.10;;;5.90;;
10637;SDS011;47007;49.252;8.904;2024-03-22T02:23:23;7.25;;;6.53;;
10637;SDS011;47007;49.252;8.904;2024-03-22T02:24:12;6.90;;;6.30;;
10637;SDS011;47007;49.252;8.904;2024-03-22T02:24:53;6.43;;;5.82;;
10637;SDS011;47007;49.252;8.904;2024-03-22T02:25:34;6.57;;;5.88;;
10637;SDS011;47007;49.252;8.904;2024-03-22T02:26:14;7.28;;;6.47;;
10637;SDS011;47007;49.252;8.904;2024-03-22T02:26:55;6.70;;;6.10;;
10637;SDS011;47007;49.252;8.904;2024-03-22T02:27:36;7.10;;;6.38;;
10637;SDS011;47007;49.252;8.904;2024-03-22T02:28:19;6.80;;;5.70;;
10637;SDS011;47007;49.252;8.904;2024-03-22T02:28:59;5.95;;;5.45;;
10637;SDS011;47007;49.252;8.904;2024-03-22T02:29:40;5.90;;;5.30;;
10637;SDS011;47007;49.252;8.904;2024-03-22T02:30:21;6.13;;;5.60;;
10637;SDS011;47007;49.252;8.904;2024-03-22T02:31:02;6.25;;;5.75;;
10637;SDS011;47007;49.252;8.904;2024-03-22T02:31:43;6.20;;;5.60;;
10637;SDS011;47007;49.252;8.904;2024-03-22T02:32:24;6.32;;;5.82;;
10637;SDS011;47007;49.252;8.904;2024-03-22T02:33:05;6.72;;;5.63;;
10637;SDS011;47007;49.252;8.904;2024-03-22T02:33:46;6.47;;;5.88;;
10637;SDS011;47007;49.252;8.904;2024-03-22T02:34:27;5.60;;;5.05;;
10637;SDS011;47007;49.252;8.904;2024-03-22T02:35:07;6.30;;;5.70;;
10637;SDS011;47007;49.252;8.904;2024-03-22T02:35:49;6.82;;;6.22;;
10637;SDS011;47007;49.252;8.904;2024-03-22T02:36:30;6.05;;;5.45;;
10637;SDS011;47007;49.252;8.904;2024-03-22T02:37:11;6.40;;;5.80;;
10637;SDS011;47007;49.252;8.904;2024-03-22T02:37:51;7.90;;;6.35;;
10637;SDS011;47007;49.252;8.904;2024-03-22T02:38:32;6.03;;;5.47;;
10637;SDS011;47007;49.252;8.904;2024-03-22T02:39:13;6.25;;;5.65;;
10637;SDS011;47007;49.252;8.904;2024-03-22T02:39:54;6.55;;;5.88;;
10637;SDS011;47007;49.252;8.904;2024-03-22T02:40:34;6.30;;;5.72;;
10637;SDS011;47007;49.252;8.904;2024-03-22T02:41:15;7.05;;;6.28;;
10637;SDS011;47007;49.252;8.904;2024-03-22T02:41:56;5.50;;;5.00;;
10637;SDS011;47007;49.252;8.904;2024-03-22T02:42:37;5.70;;;5.20;;
10637;SDS011;47007;49.252;8.904;2024-03-22T02:43:17;6.32;;;5.63;;
10637;SDS011;47007;49.252;8.904;2024-03-22T02:43:59;6.97;;;6.38;;
10637;SDS011;47007;49.252;8.904;2024-03-22T02:44:40;6.18;;;5.65;;
10637;SDS011;47007;49.252;8.904;2024-03-22T02:45:23;6.10;;;5.60;;
10637;SDS011;47007;49.252;8.904;2024-03-22T02:46:04;5.90;;;5.40;;
10637;SDS011;47007;49.252;8.904;2024-03-22T02:46:44;5.63;;;5.13;;
10637;SDS011;47007;49.252;8.904;2024-03-22T02:47:25;6.55;;;5.95;;
10637;SDS011;47007;49.252;8.904;2024-03-22T02:48:06;6.30;;;5.70;;
10637;SDS011;47007;49.252;8.904;2024-03-22T02:48:47;5.85;;;5.25;;
10637;SDS011;47007;49.252;8.904;2024-03-22T02:49:28;5.95;;;5.35;;
10637;SDS011;47007;49.252;8.904;2024-03-22T02:50:09;5.85;;;5.35;;
10637;SDS011;47007;49.252;8.904;2024-03-22T02:50:50;6.18;;;5.68;;
10637;SDS011;47007;49.252;8.904;2024-03-22T02:51:36;6.10;;;5.55;;
10637;SDS011;47007;49.252;8.904;2024-03-22T02:52:17;6.03;;;5.43;;
10637;SDS011;47007;49.252;8.904;2024-03-22T02:52:58;6.25;;;5.65;;
10637;SDS011;47007;49.252;8.904;2024-03-22T02:53:39;5.90;;;5.22;;
10637;SDS011;47007;49.252;8.904;2024-03-22T02:54:20;6.10;;;5.57;;
10637;SDS011;47007;49.252;8.904;2024-03-22T02:55:00;6.72;;;6.13;;
10637;SDS011;47007;49.252;8.904;2024-03-22T02:55:41;6.32;;;5.72;;
10637;SDS011;47007;49.252;8.904;2024-03-22T02:56:22;6.82;;;6.22;;
10637;SDS011;47007;49.252;8.904;2024-03-22T02:57:03;6.43;;;5.82;;
10637;SDS011;47007;49.252;8.904;2024-03-22T02:57:44;6.90;;;6.20;;
10637;SDS011;47007;49.252;8.904;2024-03-22T02:58:25;6.20;;;5.60;;
10637;SDS011;47007;49.252;8.904;2024-03-22T02:59:06;7.13;;;6.53;;
10637;SDS011;47007;49.252;8.904;2024-03-22T02:59:47;6.93;;;6.32;;
10637;SDS011;47007;49.252;8.904;2024-03-22T03:00:27;6.88;;;6.18;;
10637;SDS011;47007;49.252;8.904;2024-03-22T03:01:08;6.90;;;6.38;;
10637;SDS011;47007;49.252;8.904;2024-03-22T03:01:49;7.00;;;6.40;;
10637;SDS011;47007;49.252;8.904;2024-03-22T03:02:30;7.50;;;6.80;;
10637;SDS011;47007;49.252;8.904;2024-03-22T03:03:11;7.47;;;6.85;;
10637;SDS011;47007;49.252;8.904;2024-03-22T03:03:51;7.10;;;6.50;;
10637;SDS011;47007;49.252;8.904;2024-03-22T03:04:32;7.90;;;7.10;;
10637;SDS011;47007;49.252;8.904;2024-03-22T03:05:13;8.43;;;7.30;;
10637;SDS011;47007;49.252;8.904;2024-03-22T03:05:54;7.80;;;7.00;;
10637;SDS011;47007;49.252;8.904;2024-03-22T03:06:34;6.55;;;5.95;;
10637;SDS011;47007;49.252;8.904;2024-03-22T03:07:16;7.40;;;6.57;;
10637;SDS011;47007;49.252;8.904;2024-03-22T03:07:56;6.82;;;6.15;;
10637;SDS011;47007;49.252;8.904;2024-03-22T03:08:37;6.93;;;6.30;;
10637;SDS011;47007;49.252;8.904;2024-03-22T03:09:18;6.35;;;5.70;;
10637;SDS011;47007;49.252;8.904;2024-03-22T03:09:59;7.07;;;6.38;;
10637;SDS011;47007;49.252;8.904;2024-03-22T03:10:39;6.85;;;6.25;;
10637;SDS011;47007;49.252;8.904;2024-03-22T03:11:20;6.55;;;5.95;;
10637;SDS011;47007;49.252;8.904;2024-03-22T03:12:01;6.50;;;5.93;;
10637;SDS011;47007;49.252;8.904;2024-03-22T03:12:42;6.70;;;5.95;;
10637;SDS011;47007;49.252;8.904;2024-03-22T03:13:23;6.25;;;5.60;;
10637;SDS011;47007;49.252;8.904;2024-03-22T03:14:03;7.55;;;6.72;;
10637;SDS011;47007;49.252;8.904;2024-03-22T03:14:44;6.95;;;6.35;;
10637;SDS011;47007;49.252;8.904;2024-03-22T03:15:25;6.55;;;5.95;;
10637;SDS011;47007;49.252;8.904;2024-03-22T03:16:06;7.22;;;6.53;;
10637;SDS011;47007;49.252;8.904;2024-03-22T03:16:46;7.38;;;6.72;;
10637;SDS011;47007;49.252;8.904;2024-03-22T03:17:27;7.63;;;6.80;;
10637;SDS011;47007;49.252;8.904;2024-03-22T03:18:08;7.07;;;6.38;;
10637;SDS011;47007;49.252;8.904;2024-03-22T03:18:49;7.20;;;6.60;;
10637;SDS011;47007;49.252;8.904;2024-03-22T03:19:30;6.40;;;5.80;;
10637;SDS011;47007;49.252;8.904;2024-03-22T03:20:11;6.63;;;5.95;;
10637;SDS011;47007;49.252;8.904;2024-03-22T03:20:54;7.03;;;6.32;;
10637;SDS011;47007;49.252;8.904;2024-03-22T03:21:35;6.55;;;5.95;;
10637;SDS011;47007;49.252;8.904;2024-03-22T03:22:15;6.80;;;6.20;;
10637;SDS011;47007;49.252;8.904;2024-03-22T03:22:56;6.68;;;6.07;;
10637;SDS011;47007;49.252;8.904;2024-03-22T03:23:40;6.63;;;6.03;;
10637;SDS011;47007;49.252;8.904;2024-03-22T03:24:20;7.20;;;6.60;;
10637;SDS011;47007;49.252;8.904;2024-03-22T03:25:03;6.47;;;5.88;;
10637;SDS011;47007;49.252;8.904;2024-03-22T03:25:45;6.40;;;5.78;;
10637;SDS011;47007;49.252;8.904;2024-03-22T03:26:26;6.75;;;6.05;;
10637;SDS011;47007;49.252;8.904;2024-03-22T03:27:07;6.38;;;5.78;;
10637;SDS011;47007;49.252;8.904;2024-03-22T03:27:48;7.18;;;5.90;;
10637;SDS011;47007;49.252;8.904;2024-03-22T03:28:28;6.43;;;5.85;;
10637;SDS011;47007;49.252;8.904;2024-03-22T03:29:09;6.65;;;6.05;;
10637;SDS011;47007;49.252;8.904;2024-03-22T03:29:50;5.88;;;5.38;;
10637;SDS011;47007;49.252;8.904;2024-03-22T03:30:31;6.43;;;5.80;;
10637;SDS011;47007;49.252;8.904;2024-03-22T03:31:11;6.47;;;5.95;;
10637;SDS011;47007;49.252;8.904;2024-03-22T03:31:52;6.70;;;6.10;;
10637;SDS011;47007;49.252;8.904;2024-03-22T03:32:33;7.35;;;6.32;;
10637;SDS011;47007;49.252;8.904;2024-03-22T03:33:14;7.32;;;6.70;;
10637;SDS011;47007;49.252;8.904;2024-03-22T03:33:54;7.93;;;7.10;;
10637;SDS011;47007;49.252;8.904;2024-03-22T03:34:35;8.10;;;7.30;;
10637;SDS011;47007;49.252;8.904;2024-03-22T03:35:16;7.97;;;7.18;;
10637;SDS011;47007;49.252;8.904;2024-03-22T03:35:57;8.45;;;7.55;;
10637;SDS011;47007;49.252;8.904;2024-03-22T03:36:38;7.90;;;7.07;;
10637;SDS011;47007;49.252;8.904;2024-03-22T03:37:18;7.95;;;6.93;;
10637;SDS011;47007;49.252;8.904;2024-03-22T03:37:59;7.65;;;6.95;;
10637;SDS011;47007;49.252;8.904;2024-03-22T03:38:40;6.78;;;6.18;;
10637;SDS011;47007;49.252;8.904;2024-03-22T03:39:21;7.32;;;6.57;;
10637;SDS011;47007;49.252;8.904;2024-03-22T03:40:02;6.40;;;5.80;;
10637;SDS011;47007;49.252;8.904;2024-03-22T03:40:44;6.28;;;5.68;;
10637;SDS011;47007;49.252;8.904;2024-03-22T03:41:25;6.25;;;5.65;;
10637;SDS011;47007;49.252;8.904;2024-03-22T03:42:06;6.28;;;5.68;;
10637;SDS011;47007;49.252;8.904;2024-03-22T03:42:47;7.13;;;6.43;;
10637;SDS011;47007;49.252;8.904;2024-03-22T03:43:28;6.80;;;6.10;;
10637;SDS011;47007;49.252;8.904;2024-03-22T03:44:08;7.53;;;6.22;;
10637;SDS011;47007;49.252;8.904;2024-03-22T03:44:49;6.28;;;5.68;;
10637;SDS011;47007;49.252;8.904;2024-03-22T03:45:30;6.38;;;5.78;;
10637;SDS011;47007;49.252;8.904;2024-03-22T03:46:11;6.55;;;5.95;;
10637;SDS011;47007;49.252;8.904;2024-03-22T03:46:52;7.07;;;6.38;;
10637;SDS011;47007;49.252;8.904;2024-03-22T03:47:32;7.95;;;6.60;;
10637;SDS011;47007;49.252;8.904;2024-03-22T03:48:13;6.82;;;6.22;;
10637;SDS011;47007;49.252;8.904;2024-03-22T03:48:54;7.10;;;6.40;;
10637;SDS011;47007;49.252;8.904;2024-03-22T03:49:35;6.70;;;6.10;;
10637;SDS011;47007;49.252;8.904;2024-03-22T03:50:16;7.20;;;6.47;;
10637;SDS011;47007;49.252;8.904;2024-03-22T03:50:56;7.70;;;6.45;;
10637;SDS011;47007;49.252;8.904;2024-03-22T03:51:43;6.78;;;6.15;;
10637;SDS011;47007;49.252;8.904;2024-03-22T03:52:23;6.40;;;5.80;;
10637;SDS011;47007;49.252;8.904;2024-03-22T03:53:04;6.80;;;6.20;;
10637;SDS011;47007;49.252;8.904;2024-03-22T03:53:45;6.82;;;6.20;;
10637;SDS011;47007;49.252;8.904;2024-03-22T03:54:26;6.75;;;6.15;;
10637;SDS011;47007;49.252;8.904;2024-03-22T03:55:07;7.07;;;6.38;;
10637;SDS011;47007;49.252;8.904;2024-03-22T03:55:48;6.70;;;6.10;;
10637;SDS011;47007;49.252;8.904;2024-03-22T03:56:28;6.55;;;5.95;;
10637;SDS011;47007;49.252;8.904;2024-03-22T03:57:09;7.55;;;6.38;;
10637;SDS011;47007;49.252;8.904;2024-03-22T03:57:50;7.18;;;6.57;;
10637;SDS011;47007;49.252;8.904;2024-03-22T03:58:31;8.30;;;7.53;;
10637;SDS011;47007;49.252;8.904;2024-03-22T03:59:12;8.52;;;7.70;;
10637;SDS011;47007;49.252;8.904;2024-03-22T03:59:53;6.85;;;6.25;;
10637;SDS011;47007;49.252;8.904;2024-03-22T04:00:33;6.35;;;5.85;;
10637;SDS011;47007;49.252;8.904;2024-03-22T04:01:15;5.50;;;5.05;;
10637;SDS011;47007;49.252;8.904;2024-03-22T04:01:59;6.00;;;5.50;;
10637;SDS011;47007;49.252;8.904;2024-03-22T04:02:39;5.68;;;5.25;;
10637;SDS011;47007;49.252;8.904;2024-03-22T04:03:20;5.72;;;5.22;;
10637;SDS011;47007;49.252;8.904;2024-03-22T04:04:02;5.30;;;4.80;;
10637;SDS011;47007;49.252;8.904;2024-03-22T04:04:43;5.43;;;4.90;;
10637;SDS011;47007;49.252;8.904;2024-03-22T04:05:24;4.70;;;4.30;;
10637;SDS011;47007;49.252;8.904;2024-03-22T04:06:04;4.95;;;4.55;;
10637;SDS011;47007;49.252;8.904;2024-03-22T04:06:45;4.90;;;4.40;;
10637;SDS011;47007;49.252;8.904;2024-03-22T04:07:26;4.75;;;4.35;;